< Typhoon 195513 1955 Season Typhoon 195515 >
Typhoon 195514 (HOPE)
General InformationTrack Information on Google Maps || Disaster Info.ResourceGoogle EarthGE AnimationAtom FeedGeoJSON
Detalied Best Track (Time Zone = UTC)
Year Month Day Hour Lat. Long. Pressure (hPa) Wind (kt) Class Image Chart
1955 8 2 18 12.2 139.0 1008 0 2 -- Chart
1955 8 3 00 13.3 138.0 1008 0 9 -- Chart
1955 8 3 06 14.2 137.3 1006 0 9 -- Chart
1955 8 3 12 15.1 136.7 1006 0 9 -- Chart
1955 8 3 18 16.2 136.0 1004 0 9 -- Chart
1955 8 4 00 17.3 135.7 1002 0 9 -- Chart
1955 8 4 06 18.3 135.6 1000 0 9 -- Chart
1955 8 4 12 19.0 135.6 998 0 9 -- Chart
1955 8 4 18 19.6 135.6 996 0 9 -- Chart
1955 8 5 00 20.3 135.5 994 0 9 -- Chart
1955 8 5 06 21.1 135.5 992 0 9 -- Chart
1955 8 5 12 22.2 135.6 990 0 9 -- Chart
1955 8 5 18 23.3 135.6 990 0 9 -- Chart
1955 8 6 00 24.5 135.8 990 0 9 -- Chart
1955 8 6 06 25.3 136.0 990 0 9 -- Chart
1955 8 6 12 26.3 136.4 990 0 9 -- Chart
1955 8 6 18 27.2 136.9 990 0 9 -- Chart
1955 8 7 00 29.3 137.8 986 0 9 -- Chart
1955 8 7 06 29.3 138.2 986 0 9 -- Chart
1955 8 7 12 29.5 138.6 986 0 9 -- Chart
1955 8 7 18 29.9 138.7 985 0 9 -- Chart
1955 8 8 00 30.2 139.2 985 0 9 -- Chart
1955 8 8 06 30.6 139.2 985 0 9 -- Chart
1955 8 8 12 31.3 139.7 986 0 9 -- Chart
1955 8 8 18 31.4 140.3 986 0 9 -- Chart
1955 8 9 00 31.7 140.7 988 0 9 -- Chart
1955 8 9 06 32.0 140.8 990 0 9 -- Chart
1955 8 9 12 32.0 141.1 990 0 9 -- Chart
1955 8 9 18 31.6 141.4 990 0 9 -- Chart
1955 8 10 00 31.5 142.1 990 0 9 -- Chart
1955 8 10 06 31.8 143.2 990 0 9 -- Chart
1955 8 10 12 32.1 144.2 990 0 9 -- Chart
1955 8 10 18 32.3 145.1 990 0 9 -- Chart
1955 8 11 00 32.6 146.1 990 0 9 -- Chart
1955 8 11 06 32.8 148.2 990 0 9 -- Chart
1955 8 11 12 33.1 150.6 985 0 9 -- Chart
1955 8 11 18 33.4 152.9 980 0 9 -- Chart
1955 8 12 00 34.3 155.2 975 0 9 -- Chart
1955 8 12 06 36.5 157.6 975 0 9 -- Chart
1955 8 12 12 38.5 157.4 975 0 9 -- Chart
1955 8 12 18 40.3 157.0 975 0 9 -- Chart
1955 8 13 00 41.5 156.5 975 0 9 -- Chart
1955 8 13 06 42.5 156.0 975 0 9 -- Chart
1955 8 13 12 43.5 155.4 975 0 9 -- Chart
1955 8 13 18 44.0 154.9 975 0 9 -- Chart
1955 8 14 00 44.5 154.5 975 0 9 -- Chart
1955 8 14 06 45.0 154.6 975 0 9 -- Chart
1955 8 14 12 45.5 155.2 975 0 9 -- Chart
1955 8 14 18 46.0 156.0 980 0 9 -- Chart
1955 8 15 00 47.0 156.0 985 0 9 -- Chart
1955 8 15 06 47.5 156.0 990 0 9 -- Chart
1955 8 15 12 48.0 156.0 994 0 9 -- Chart
1955 8 15 18 48.3 156.0 996 0 9 -- Chart
1955 8 16 00 48.6 156.0 1000 0 2 -- Chart
1955 8 16 06 49.0 156.0 1000 0 2 -- Chart
1955 8 16 12 49.0 156.0 1000 0 2 -- Chart
1955 8 16 18 49.0 156.0 1000 0 2 -- Chart
1955 8 17 00 49.0 156.0 994 0 6 -- Chart
1955 8 17 06 49.4 156.0 994 0 6 -- Chart
1955 8 17 12 50.0 156.1 992 0 6 -- Chart
1955 8 17 18 50.5 156.2 998 0 6 -- Chart
1955 8 18 00 52.0 158.0 1000 0 6 -- Chart
1955 8 18 06 52.5 159.0 1003 0 6 -- Chart
1955 8 18 12 53.1 160.9 1005 0 6 -- Chart
1955 8 18 18 53.8 162.0 1004 0 6 -- Chart
1955 8 19 00 54.7 163.9 1004 0 6 -- Chart
1955 8 19 06 55.7 165.4 1004 0 6 -- Chart
1955 8 19 12 57.0 166.5 1004 0 6 -- Chart
1955 8 19 18 58.0 167.9 1004 0 6 -- Chart
1955 8 20 00 58.8 169.0 1006 0 6 -- Chart
1955 8 20 06 59.5 169.9 1005 0 6 -- Chart
Japan Meteorological Agency Best Track Data | Correction Date : 1989-06-01
< Typhoon 195513 1955 Season Typhoon 195515 >

Help